sensor_id;sensor_type;location;lat;lon;timestamp;P1;durP1;ratioP1;P2;durP2;ratioP2
40058;SDS011;25763;49.972;8.568;2023-04-29T00:00:00;16.98;;;15.98;;
40058;SDS011;25763;49.972;8.568;2023-04-29T00:02:25;17.95;;;16.95;;
40058;SDS011;25763;49.972;8.568;2023-04-29T00:04:51;18.10;;;17.10;;
40058;SDS011;25763;49.972;8.568;2023-04-29T00:07:16;17.35;;;16.35;;
40058;SDS011;25763;49.972;8.568;2023-04-29T00:09:42;17.20;;;16.23;;
40058;SDS011;25763;49.972;8.568;2023-04-29T00:12:07;17.92;;;16.95;;
40058;SDS011;25763;49.972;8.568;2023-04-29T00:14:33;17.52;;;16.55;;
40058;SDS011;25763;49.972;8.568;2023-04-29T00:16:59;17.35;;;16.38;;
40058;SDS011;25763;49.972;8.568;2023-04-29T00:19:24;17.88;;;16.88;;
40058;SDS011;25763;49.972;8.568;2023-04-29T00:21:50;18.50;;;17.50;;
40058;SDS011;25763;49.972;8.568;2023-04-29T00:24:16;18.48;;;17.48;;
40058;SDS011;25763;49.972;8.568;2023-04-29T00:26:41;17.85;;;16.85;;
40058;SDS011;25763;49.972;8.568;2023-04-29T00:29:06;18.50;;;17.50;;
40058;SDS011;25763;49.972;8.568;2023-04-29T00:31:32;19.42;;;18.38;;
40058;SDS011;25763;49.972;8.568;2023-04-29T00:33:57;21.83;;;20.65;;
40058;SDS011;25763;49.972;8.568;2023-04-29T00:36:23;19.02;;;17.98;;
40058;SDS011;25763;49.972;8.568;2023-04-29T00:38:50;19.67;;;18.60;;
40058;SDS011;25763;49.972;8.568;2023-04-29T00:41:15;19.25;;;18.23;;
40058;SDS011;25763;49.972;8.568;2023-04-29T00:43:40;18.23;;;17.23;;
40058;SDS011;25763;49.972;8.568;2023-04-29T00:46:06;16.73;;;15.80;;
40058;SDS011;25763;49.972;8.568;2023-04-29T00:48:31;17.05;;;16.10;;
40058;SDS011;25763;49.972;8.568;2023-04-29T00:50:57;17.77;;;16.77;;
40058;SDS011;25763;49.972;8.568;2023-04-29T00:53:23;18.40;;;17.40;;
40058;SDS011;25763;49.972;8.568;2023-04-29T00:55:48;18.65;;;17.65;;
40058;SDS011;25763;49.972;8.568;2023-04-29T00:58:16;17.73;;;16.73;;
40058;SDS011;25763;49.972;8.568;2023-04-29T01:00:42;18.40;;;17.40;;
40058;SDS011;25763;49.972;8.568;2023-04-29T01:03:08;18.27;;;17.27;;
40058;SDS011;25763;49.972;8.568;2023-04-29T01:05:34;17.25;;;16.30;;
40058;SDS011;25763;49.972;8.568;2023-04-29T01:08:09;16.85;;;15.90;;
40058;SDS011;25763;49.972;8.568;2023-04-29T01:10:38;16.33;;;15.43;;
40058;SDS011;25763;49.972;8.568;2023-04-29T01:13:10;18.05;;;17.02;;
40058;SDS011;25763;49.972;8.568;2023-04-29T01:15:48;17.35;;;16.35;;
40058;SDS011;25763;49.972;8.568;2023-04-29T01:21:12;16.98;;;15.98;;
40058;SDS011;25763;49.972;8.568;2023-04-29T01:23:37;17.45;;;16.48;;
40058;SDS011;25763;49.972;8.568;2023-04-29T01:26:02;19.20;;;18.13;;
40058;SDS011;25763;49.972;8.568;2023-04-29T01:33:43;21.33;;;20.08;;
40058;SDS011;25763;49.972;8.568;2023-04-29T01:42:09;16.63;;;15.68;;
40058;SDS011;25763;49.972;8.568;2023-04-29T01:44:42;16.92;;;15.98;;
40058;SDS011;25763;49.972;8.568;2023-04-29T01:47:08;17.85;;;16.75;;
40058;SDS011;25763;49.972;8.568;2023-04-29T01:49:37;19.23;;;18.08;;
40058;SDS011;25763;49.972;8.568;2023-04-29T01:52:03;19.10;;;17.55;;
40058;SDS011;25763;49.972;8.568;2023-04-29T01:54:29;18.95;;;17.75;;
40058;SDS011;25763;49.972;8.568;2023-04-29T01:56:54;17.75;;;16.75;;
40058;SDS011;25763;49.972;8.568;2023-04-29T01:59:21;17.65;;;16.65;;
40058;SDS011;25763;49.972;8.568;2023-04-29T02:01:46;16.13;;;15.23;;
40058;SDS011;25763;49.972;8.568;2023-04-29T02:04:12;15.80;;;14.90;;
40058;SDS011;25763;49.972;8.568;2023-04-29T02:06:37;16.25;;;15.15;;
40058;SDS011;25763;49.972;8.568;2023-04-29T02:09:03;15.85;;;14.95;;
40058;SDS011;25763;49.972;8.568;2023-04-29T02:11:28;15.27;;;14.38;;
40058;SDS011;25763;49.972;8.568;2023-04-29T02:13:54;14.43;;;13.63;;
40058;SDS011;25763;49.972;8.568;2023-04-29T02:16:19;16.00;;;15.10;;
40058;SDS011;25763;49.972;8.568;2023-04-29T02:18:44;15.70;;;14.80;;
40058;SDS011;25763;49.972;8.568;2023-04-29T02:21:10;17.13;;;16.13;;
40058;SDS011;25763;49.972;8.568;2023-04-29T02:23:36;17.27;;;16.25;;
40058;SDS011;25763;49.972;8.568;2023-04-29T02:26:02;18.40;;;17.10;;
40058;SDS011;25763;49.972;8.568;2023-04-29T02:28:31;16.58;;;15.68;;
40058;SDS011;25763;49.972;8.568;2023-04-29T02:30:58;18.17;;;17.05;;
40058;SDS011;25763;49.972;8.568;2023-04-29T02:33:23;17.88;;;16.88;;
40058;SDS011;25763;49.972;8.568;2023-04-29T02:35:48;17.33;;;16.38;;
40058;SDS011;25763;49.972;8.568;2023-04-29T02:38:14;15.88;;;14.98;;
40058;SDS011;25763;49.972;8.568;2023-04-29T02:40:40;17.38;;;16.38;;
40058;SDS011;25763;49.972;8.568;2023-04-29T02:43:09;17.02;;;16.10;;
40058;SDS011;25763;49.972;8.568;2023-04-29T02:45:35;17.35;;;16.38;;
40058;SDS011;25763;49.972;8.568;2023-04-29T02:48:00;17.92;;;16.92;;
40058;SDS011;25763;49.972;8.568;2023-04-29T02:50:26;17.45;;;16.45;;
40058;SDS011;25763;49.972;8.568;2023-04-29T02:52:51;17.42;;;16.42;;
40058;SDS011;25763;49.972;8.568;2023-04-29T02:55:17;18.27;;;17.27;;
40058;SDS011;25763;49.972;8.568;2023-04-29T02:57:42;18.30;;;17.30;;
40058;SDS011;25763;49.972;8.568;2023-04-29T03:00:08;17.58;;;16.58;;
40058;SDS011;25763;49.972;8.568;2023-04-29T03:02:34;20.38;;;19.27;;
40058;SDS011;25763;49.972;8.568;2023-04-29T03:04:59;19.25;;;18.15;;
40058;SDS011;25763;49.972;8.568;2023-04-29T03:07:24;19.40;;;18.33;;
40058;SDS011;25763;49.972;8.568;2023-04-29T03:09:50;19.35;;;18.25;;
40058;SDS011;25763;49.972;8.568;2023-04-29T03:12:15;19.17;;;18.08;;
40058;SDS011;25763;49.972;8.568;2023-04-29T03:14:41;19.23;;;18.15;;
40058;SDS011;25763;49.972;8.568;2023-04-29T03:17:06;18.77;;;17.73;;
40058;SDS011;25763;49.972;8.568;2023-04-29T03:19:31;19.73;;;18.65;;
40058;SDS011;25763;49.972;8.568;2023-04-29T03:21:57;19.02;;;18.00;;
40058;SDS011;25763;49.972;8.568;2023-04-29T03:24:22;18.42;;;17.42;;
40058;SDS011;25763;49.972;8.568;2023-04-29T03:26:47;19.13;;;18.08;;
40058;SDS011;25763;49.972;8.568;2023-04-29T03:29:13;19.42;;;18.35;;
40058;SDS011;25763;49.972;8.568;2023-04-29T03:31:38;18.30;;;17.30;;
40058;SDS011;25763;49.972;8.568;2023-04-29T03:34:04;20.10;;;19.00;;
40058;SDS011;25763;49.972;8.568;2023-04-29T03:36:29;19.60;;;18.52;;
40058;SDS011;25763;49.972;8.568;2023-04-29T03:38:54;20.08;;;18.98;;
40058;SDS011;25763;49.972;8.568;2023-04-29T03:41:20;19.00;;;17.95;;
40058;SDS011;25763;49.972;8.568;2023-04-29T03:43:47;19.48;;;18.33;;
40058;SDS011;25763;49.972;8.568;2023-04-29T03:46:13;17.35;;;16.35;;
40058;SDS011;25763;49.972;8.568;2023-04-29T03:48:38;19.33;;;18.27;;
40058;SDS011;25763;49.972;8.568;2023-04-29T03:51:04;17.58;;;16.60;;
40058;SDS011;25763;49.972;8.568;2023-04-29T03:53:29;16.55;;;15.65;;
40058;SDS011;25763;49.972;8.568;2023-04-29T03:55:55;17.75;;;16.75;;
40058;SDS011;25763;49.972;8.568;2023-04-29T03:58:20;17.20;;;16.20;;
40058;SDS011;25763;49.972;8.568;2023-04-29T04:00:47;16.90;;;15.90;;
40058;SDS011;25763;49.972;8.568;2023-04-29T04:03:13;18.10;;;17.00;;
40058;SDS011;25763;49.972;8.568;2023-04-29T04:05:38;16.40;;;15.50;;
40058;SDS011;25763;49.972;8.568;2023-04-29T04:08:03;15.30;;;14.40;;
40058;SDS011;25763;49.972;8.568;2023-04-29T04:10:29;15.88;;;14.98;;
40058;SDS011;25763;49.972;8.568;2023-04-29T04:12:54;15.85;;;14.95;;
40058;SDS011;25763;49.972;8.568;2023-04-29T04:15:20;17.27;;;15.80;;
40058;SDS011;25763;49.972;8.568;2023-04-29T04:17:46;15.32;;;14.43;;
40058;SDS011;25763;49.972;8.568;2023-04-29T04:20:12;13.98;;;13.18;;
40058;SDS011;25763;49.972;8.568;2023-04-29T04:22:38;15.35;;;14.45;;
40058;SDS011;25763;49.972;8.568;2023-04-29T04:25:03;16.20;;;15.30;;
40058;SDS011;25763;49.972;8.568;2023-04-29T04:27:29;14.73;;;13.82;;
40058;SDS011;25763;49.972;8.568;2023-04-29T04:29:54;15.82;;;14.93;;
40058;SDS011;25763;49.972;8.568;2023-04-29T04:32:23;15.25;;;14.35;;
40058;SDS011;25763;49.972;8.568;2023-04-29T04:34:48;15.07;;;14.18;;
40058;SDS011;25763;49.972;8.568;2023-04-29T04:37:14;15.25;;;14.35;;
40058;SDS011;25763;49.972;8.568;2023-04-29T04:39:40;15.90;;;15.00;;
40058;SDS011;25763;49.972;8.568;2023-04-29T04:42:05;15.80;;;14.80;;
40058;SDS011;25763;49.972;8.568;2023-04-29T04:44:31;16.13;;;15.23;;
40058;SDS011;25763;49.972;8.568;2023-04-29T04:46:57;15.93;;;14.98;;
40058;SDS011;25763;49.972;8.568;2023-04-29T04:49:25;16.63;;;15.70;;
40058;SDS011;25763;49.972;8.568;2023-04-29T04:51:51;16.33;;;15.40;;
40058;SDS011;25763;49.972;8.568;2023-04-29T04:54:17;15.82;;;14.93;;
40058;SDS011;25763;49.972;8.568;2023-04-29T04:56:42;15.13;;;14.18;;
40058;SDS011;25763;49.972;8.568;2023-04-29T04:59:08;17.85;;;16.80;;
40058;SDS011;25763;49.972;8.568;2023-04-29T05:01:33;14.38;;;13.57;;
40058;SDS011;25763;49.972;8.568;2023-04-29T05:03:58;14.85;;;13.95;;
40058;SDS011;25763;49.972;8.568;2023-04-29T05:06:24;15.00;;;14.10;;
40058;SDS011;25763;49.972;8.568;2023-04-29T05:08:50;13.48;;;12.68;;
40058;SDS011;25763;49.972;8.568;2023-04-29T05:11:19;14.85;;;13.85;;
40058;SDS011;25763;49.972;8.568;2023-04-29T05:13:46;14.68;;;13.88;;
40058;SDS011;25763;49.972;8.568;2023-04-29T05:16:12;16.95;;;15.93;;
40058;SDS011;25763;49.972;8.568;2023-04-29T05:18:37;15.25;;;14.35;;
40058;SDS011;25763;49.972;8.568;2023-04-29T05:21:02;16.02;;;15.13;;
40058;SDS011;25763;49.972;8.568;2023-04-29T05:23:28;15.90;;;14.90;;
40058;SDS011;25763;49.972;8.568;2023-04-29T05:25:53;14.63;;;13.77;;
40058;SDS011;25763;49.972;8.568;2023-04-29T05:28:19;13.77;;;12.88;;
40058;SDS011;25763;49.972;8.568;2023-04-29T05:30:44;14.60;;;13.70;;
40058;SDS011;25763;49.972;8.568;2023-04-29T05:33:10;12.82;;;12.02;;
40058;SDS011;25763;49.972;8.568;2023-04-29T05:35:36;13.40;;;12.60;;
40058;SDS011;25763;49.972;8.568;2023-04-29T05:38:01;14.13;;;13.18;;
40058;SDS011;25763;49.972;8.568;2023-04-29T05:40:27;13.48;;;12.68;;
40058;SDS011;25763;49.972;8.568;2023-04-29T05:42:53;12.93;;;12.13;;
40058;SDS011;25763;49.972;8.568;2023-04-29T05:45:18;13.15;;;12.35;;
40058;SDS011;25763;49.972;8.568;2023-04-29T05:47:43;14.57;;;13.52;;
40058;SDS011;25763;49.972;8.568;2023-04-29T05:50:09;14.63;;;13.57;;
40058;SDS011;25763;49.972;8.568;2023-04-29T05:52:35;14.35;;;13.35;;
40058;SDS011;25763;49.972;8.568;2023-04-29T05:55:01;14.70;;;13.80;;
40058;SDS011;25763;49.972;8.568;2023-04-29T05:57:26;15.15;;;14.23;;
40058;SDS011;25763;49.972;8.568;2023-04-29T05:59:52;16.67;;;15.57;;
40058;SDS011;25763;49.972;8.568;2023-04-29T06:02:19;16.42;;;15.43;;
40058;SDS011;25763;49.972;8.568;2023-04-29T06:04:44;16.90;;;15.90;;
40058;SDS011;25763;49.972;8.568;2023-04-29T06:07:11;18.80;;;17.58;;
40058;SDS011;25763;49.972;8.568;2023-04-29T06:09:37;19.33;;;18.23;;
40058;SDS011;25763;49.972;8.568;2023-04-29T06:12:03;19.63;;;18.52;;
40058;SDS011;25763;49.972;8.568;2023-04-29T06:14:29;18.23;;;17.17;;
40058;SDS011;25763;49.972;8.568;2023-04-29T06:16:54;19.25;;;18.05;;
40058;SDS011;25763;49.972;8.568;2023-04-29T06:19:20;16.33;;;15.27;;
40058;SDS011;25763;49.972;8.568;2023-04-29T06:21:45;14.50;;;13.25;;
40058;SDS011;25763;49.972;8.568;2023-04-29T06:24:11;16.83;;;15.82;;
40058;SDS011;25763;49.972;8.568;2023-04-29T06:26:36;11.70;;;11.00;;
40058;SDS011;25763;49.972;8.568;2023-04-29T06:29:02;11.90;;;11.13;;
40058;SDS011;25763;49.972;8.568;2023-04-29T06:31:27;12.10;;;11.32;;
40058;SDS011;25763;49.972;8.568;2023-04-29T06:33:52;11.65;;;10.65;;
40058;SDS011;25763;49.972;8.568;2023-04-29T06:36:18;10.95;;;10.25;;
40058;SDS011;25763;49.972;8.568;2023-04-29T06:38:44;13.95;;;12.95;;
40058;SDS011;25763;49.972;8.568;2023-04-29T06:41:09;12.80;;;12.00;;
40058;SDS011;25763;49.972;8.568;2023-04-29T06:43:35;12.48;;;11.65;;
40058;SDS011;25763;49.972;8.568;2023-04-29T06:46:00;13.85;;;13.05;;
40058;SDS011;25763;49.972;8.568;2023-04-29T06:48:26;11.93;;;11.02;;
40058;SDS011;25763;49.972;8.568;2023-04-29T06:50:53;11.02;;;10.32;;
40058;SDS011;25763;49.972;8.568;2023-04-29T06:53:20;11.43;;;10.73;;
40058;SDS011;25763;49.972;8.568;2023-04-29T06:55:46;11.32;;;10.60;;
40058;SDS011;25763;49.972;8.568;2023-04-29T06:58:15;11.10;;;10.40;;
40058;SDS011;25763;49.972;8.568;2023-04-29T07:00:47;11.52;;;10.82;;
40058;SDS011;25763;49.972;8.568;2023-04-29T07:03:14;11.00;;;10.30;;
40058;SDS011;25763;49.972;8.568;2023-04-29T07:05:42;12.02;;;10.48;;
40058;SDS011;25763;49.972;8.568;2023-04-29T07:08:09;12.63;;;11.82;;
40058;SDS011;25763;49.972;8.568;2023-04-29T07:10:35;11.20;;;10.50;;
40058;SDS011;25763;49.972;8.568;2023-04-29T07:13:00;12.00;;;11.30;;
40058;SDS011;25763;49.972;8.568;2023-04-29T07:15:26;10.90;;;10.20;;
40058;SDS011;25763;49.972;8.568;2023-04-29T07:17:52;10.80;;;10.10;;
40058;SDS011;25763;49.972;8.568;2023-04-29T07:20:18;11.00;;;10.30;;
40058;SDS011;25763;49.972;8.568;2023-04-29T07:22:44;11.38;;;10.68;;
40058;SDS011;25763;49.972;8.568;2023-04-29T07:25:09;11.60;;;10.80;;
40058;SDS011;25763;49.972;8.568;2023-04-29T07:27:35;10.40;;;9.80;;
40058;SDS011;25763;49.972;8.568;2023-04-29T07:30:01;12.32;;;11.15;;
40058;SDS011;25763;49.972;8.568;2023-04-29T07:32:27;10.18;;;9.57;;
40058;SDS011;25763;49.972;8.568;2023-04-29T07:34:52;10.70;;;10.00;;
40058;SDS011;25763;49.972;8.568;2023-04-29T07:37:18;11.00;;;10.30;;
40058;SDS011;25763;49.972;8.568;2023-04-29T07:39:43;11.70;;;11.00;;
40058;SDS011;25763;49.972;8.568;2023-04-29T07:42:08;11.75;;;11.05;;
40058;SDS011;25763;49.972;8.568;2023-04-29T07:44:34;11.95;;;11.07;;
40058;SDS011;25763;49.972;8.568;2023-04-29T07:47:00;11.73;;;11.02;;
40058;SDS011;25763;49.972;8.568;2023-04-29T07:49:25;11.40;;;10.70;;
40058;SDS011;25763;49.972;8.568;2023-04-29T07:51:51;11.50;;;10.73;;
40058;SDS011;25763;49.972;8.568;2023-04-29T07:54:16;11.77;;;10.95;;
40058;SDS011;25763;49.972;8.568;2023-04-29T07:56:43;10.85;;;10.15;;
40058;SDS011;25763;49.972;8.568;2023-04-29T07:59:08;10.73;;;10.02;;
40058;SDS011;25763;49.972;8.568;2023-04-29T08:01:34;11.20;;;10.50;;
40058;SDS011;25763;49.972;8.568;2023-04-29T08:03:59;10.88;;;10.18;;
40058;SDS011;25763;49.972;8.568;2023-04-29T08:06:25;11.88;;;11.07;;
40058;SDS011;25763;49.972;8.568;2023-04-29T08:08:51;10.65;;;10.05;;
40058;SDS011;25763;49.972;8.568;2023-04-29T08:11:16;10.10;;;9.48;;
40058;SDS011;25763;49.972;8.568;2023-04-29T08:13:45;11.55;;;10.85;;
40058;SDS011;25763;49.972;8.568;2023-04-29T08:16:11;10.60;;;9.90;;
40058;SDS011;25763;49.972;8.568;2023-04-29T08:18:37;11.45;;;10.68;;
40058;SDS011;25763;49.972;8.568;2023-04-29T08:21:03;11.95;;;11.15;;
40058;SDS011;25763;49.972;8.568;2023-04-29T08:23:28;12.43;;;11.63;;
40058;SDS011;25763;49.972;8.568;2023-04-29T08:25:54;10.73;;;10.05;;
40058;SDS011;25763;49.972;8.568;2023-04-29T08:28:23;11.27;;;10.57;;
40058;SDS011;25763;49.972;8.568;2023-04-29T08:30:49;11.60;;;10.82;;
40058;SDS011;25763;49.972;8.568;2023-04-29T08:33:14;10.68;;;9.98;;
40058;SDS011;25763;49.972;8.568;2023-04-29T08:35:40;11.57;;;10.77;;
40058;SDS011;25763;49.972;8.568;2023-04-29T08:38:07;10.38;;;9.70;;
40058;SDS011;25763;49.972;8.568;2023-04-29T08:40:40;11.52;;;10.73;;
40058;SDS011;25763;49.972;8.568;2023-04-29T08:43:07;12.13;;;11.32;;
40058;SDS011;25763;49.972;8.568;2023-04-29T08:45:34;10.13;;;9.52;;
40058;SDS011;25763;49.972;8.568;2023-04-29T08:48:01;10.10;;;9.50;;
40058;SDS011;25763;49.972;8.568;2023-04-29T08:50:27;11.30;;;10.52;;
40058;SDS011;25763;49.972;8.568;2023-04-29T08:52:54;10.75;;;10.05;;
40058;SDS011;25763;49.972;8.568;2023-04-29T08:55:20;10.98;;;10.27;;
40058;SDS011;25763;49.972;8.568;2023-04-29T08:57:45;10.65;;;9.95;;
40058;SDS011;25763;49.972;8.568;2023-04-29T09:00:14;10.32;;;9.73;;
40058;SDS011;25763;49.972;8.568;2023-04-29T09:02:42;10.13;;;9.52;;
40058;SDS011;25763;49.972;8.568;2023-04-29T09:05:10;10.95;;;10.25;;
40058;SDS011;25763;49.972;8.568;2023-04-29T09:07:39;10.75;;;10.00;;
40058;SDS011;25763;49.972;8.568;2023-04-29T09:10:05;11.18;;;10.32;;
40058;SDS011;25763;49.972;8.568;2023-04-29T09:12:32;10.70;;;10.00;;
40058;SDS011;25763;49.972;8.568;2023-04-29T09:14:58;11.23;;;10.45;;
40058;SDS011;25763;49.972;8.568;2023-04-29T09:22:47;11.57;;;10.77;;
40058;SDS011;25763;49.972;8.568;2023-04-29T09:25:19;11.48;;;10.77;;
40058;SDS011;25763;49.972;8.568;2023-04-29T09:27:45;11.80;;;11.00;;
40058;SDS011;25763;49.972;8.568;2023-04-29T09:30:11;11.52;;;10.82;;
40058;SDS011;25763;49.972;8.568;2023-04-29T09:32:37;11.95;;;11.15;;
40058;SDS011;25763;49.972;8.568;2023-04-29T09:38:08;10.98;;;10.05;;
40058;SDS011;25763;49.972;8.568;2023-04-29T09:40:33;11.52;;;10.82;;
40058;SDS011;25763;49.972;8.568;2023-04-29T09:42:59;11.95;;;11.23;;
40058;SDS011;25763;49.972;8.568;2023-04-29T09:45:34;12.10;;;11.40;;
40058;SDS011;25763;49.972;8.568;2023-04-29T09:48:10;12.23;;;11.52;;
40058;SDS011;25763;49.972;8.568;2023-04-29T09:50:39;12.40;;;11.70;;
40058;SDS011;25763;49.972;8.568;2023-04-29T09:53:07;12.00;;;11.20;;
40058;SDS011;25763;49.972;8.568;2023-04-29T09:58:30;10.80;;;10.10;;
40058;SDS011;25763;49.972;8.568;2023-04-29T10:01:04;12.25;;;11.45;;
40058;SDS011;25763;49.972;8.568;2023-04-29T10:03:33;10.77;;;10.07;;
40058;SDS011;25763;49.972;8.568;2023-04-29T10:06:00;10.93;;;10.23;;
40058;SDS011;25763;49.972;8.568;2023-04-29T10:08:28;10.38;;;9.73;;
40058;SDS011;25763;49.972;8.568;2023-04-29T10:11:12;12.50;;;11.70;;
40058;SDS011;25763;49.972;8.568;2023-04-29T10:13:41;11.25;;;10.55;;
40058;SDS011;25763;49.972;8.568;2023-04-29T10:18:35;11.98;;;11.27;;
40058;SDS011;25763;49.972;8.568;2023-04-29T10:21:02;10.23;;;9.52;;
40058;SDS011;25763;49.972;8.568;2023-04-29T10:23:34;11.30;;;10.32;;
40058;SDS011;25763;49.972;8.568;2023-04-29T10:26:08;11.05;;;10.35;;
40058;SDS011;25763;49.972;8.568;2023-04-29T10:28:37;10.38;;;9.73;;
40058;SDS011;25763;49.972;8.568;2023-04-29T10:31:04;10.77;;;10.07;;
40058;SDS011;25763;49.972;8.568;2023-04-29T10:33:31;11.32;;;10.63;;
40058;SDS011;25763;49.972;8.568;2023-04-29T10:35:59;10.52;;;9.82;;
40058;SDS011;25763;49.972;8.568;2023-04-29T10:38:34;10.82;;;10.18;;
40058;SDS011;25763;49.972;8.568;2023-04-29T10:41:07;10.90;;;10.20;;
40058;SDS011;25763;49.972;8.568;2023-04-29T10:43:39;13.55;;;12.75;;
40058;SDS011;25763;49.972;8.568;2023-04-29T10:46:20;11.43;;;10.73;;
40058;SDS011;25763;49.972;8.568;2023-04-29T10:48:48;12.50;;;11.70;;
40058;SDS011;25763;49.972;8.568;2023-04-29T10:51:29;12.32;;;11.52;;
40058;SDS011;25763;49.972;8.568;2023-04-29T10:53:57;12.35;;;11.65;;
40058;SDS011;25763;49.972;8.568;2023-04-29T10:59:05;11.27;;;10.57;;
40058;SDS011;25763;49.972;8.568;2023-04-29T11:01:40;12.10;;;11.35;;
40058;SDS011;25763;49.972;8.568;2023-04-29T11:04:06;13.00;;;12.23;;
40058;SDS011;25763;49.972;8.568;2023-04-29T11:09:03;12.00;;;11.30;;
40058;SDS011;25763;49.972;8.568;2023-04-29T11:14:26;11.85;;;11.15;;
40058;SDS011;25763;49.972;8.568;2023-04-29T11:16:55;12.50;;;11.75;;
40058;SDS011;25763;49.972;8.568;2023-04-29T11:19:23;12.80;;;12.02;;
40058;SDS011;25763;49.972;8.568;2023-04-29T11:22:02;11.55;;;10.85;;
40058;SDS011;25763;49.972;8.568;2023-04-29T11:24:36;11.40;;;10.70;;
40058;SDS011;25763;49.972;8.568;2023-04-29T11:27:12;11.85;;;11.15;;
40058;SDS011;25763;49.972;8.568;2023-04-29T11:29:38;13.90;;;13.10;;
40058;SDS011;25763;49.972;8.568;2023-04-29T11:32:03;17.90;;;16.90;;
40058;SDS011;25763;49.972;8.568;2023-04-29T11:34:29;14.77;;;13.98;;
40058;SDS011;25763;49.972;8.568;2023-04-29T11:36:54;18.95;;;17.85;;
40058;SDS011;25763;49.972;8.568;2023-04-29T11:39:20;19.88;;;18.77;;
40058;SDS011;25763;49.972;8.568;2023-04-29T11:41:45;18.65;;;17.65;;
40058;SDS011;25763;49.972;8.568;2023-04-29T11:44:11;19.60;;;18.50;;
40058;SDS011;25763;49.972;8.568;2023-04-29T11:46:36;16.20;;;15.20;;
40058;SDS011;25763;49.972;8.568;2023-04-29T11:49:01;14.00;;;13.00;;
40058;SDS011;25763;49.972;8.568;2023-04-29T11:51:27;13.70;;;12.90;;
40058;SDS011;25763;49.972;8.568;2023-04-29T11:53:53;12.55;;;11.85;;
40058;SDS011;25763;49.972;8.568;2023-04-29T11:56:22;12.05;;;11.35;;
40058;SDS011;25763;49.972;8.568;2023-04-29T11:58:49;11.65;;;10.93;;
40058;SDS011;25763;49.972;8.568;2023-04-29T12:01:19;11.68;;;10.98;;
40058;SDS011;25763;49.972;8.568;2023-04-29T12:03:47;12.10;;;11.40;;
40058;SDS011;25763;49.972;8.568;2023-04-29T12:06:13;13.07;;;12.23;;
40058;SDS011;25763;49.972;8.568;2023-04-29T12:08:39;11.98;;;11.27;;
40058;SDS011;25763;49.972;8.568;2023-04-29T12:11:05;13.10;;;12.30;;
40058;SDS011;25763;49.972;8.568;2023-04-29T12:13:31;12.02;;;11.32;;
40058;SDS011;25763;49.972;8.568;2023-04-29T12:16:00;12.32;;;11.60;;
40058;SDS011;25763;49.972;8.568;2023-04-29T12:18:26;13.40;;;12.60;;
40058;SDS011;25763;49.972;8.568;2023-04-29T12:20:54;12.73;;;11.93;;
40058;SDS011;25763;49.972;8.568;2023-04-29T12:23:20;13.00;;;12.20;;
40058;SDS011;25763;49.972;8.568;2023-04-29T12:25:54;13.00;;;12.23;;
40058;SDS011;25763;49.972;8.568;2023-04-29T12:28:22;15.05;;;14.20;;
40058;SDS011;25763;49.972;8.568;2023-04-29T12:30:50;16.92;;;15.98;;
40058;SDS011;25763;49.972;8.568;2023-04-29T12:33:18;13.10;;;12.30;;
40058;SDS011;25763;49.972;8.568;2023-04-29T12:35:46;12.77;;;12.07;;
40058;SDS011;25763;49.972;8.568;2023-04-29T12:38:14;12.02;;;11.32;;
40058;SDS011;25763;49.972;8.568;2023-04-29T12:40:41;12.32;;;11.63;;
40058;SDS011;25763;49.972;8.568;2023-04-29T12:43:09;12.02;;;11.32;;
40058;SDS011;25763;49.972;8.568;2023-04-29T12:45:34;12.15;;;11.45;;
40058;SDS011;25763;49.972;8.568;2023-04-29T12:48:00;13.95;;;13.15;;
40058;SDS011;25763;49.972;8.568;2023-04-29T12:50:27;12.30;;;11.60;;
40058;SDS011;25763;49.972;8.568;2023-04-29T12:55:22;12.20;;;11.50;;
40058;SDS011;25763;49.972;8.568;2023-04-29T12:57:48;12.38;;;11.68;;
40058;SDS011;25763;49.972;8.568;2023-04-29T13:00:14;16.25;;;15.35;;
40058;SDS011;25763;49.972;8.568;2023-04-29T13:02:39;12.18;;;11.38;;
40058;SDS011;25763;49.972;8.568;2023-04-29T13:05:05;12.55;;;11.85;;
40058;SDS011;25763;49.972;8.568;2023-04-29T13:07:31;12.68;;;11.95;;
40058;SDS011;25763;49.972;8.568;2023-04-29T13:09:56;12.57;;;11.77;;
40058;SDS011;25763;49.972;8.568;2023-04-29T13:12:21;13.27;;;12.48;;
40058;SDS011;25763;49.972;8.568;2023-04-29T13:14:47;12.75;;;11.93;;
40058;SDS011;25763;49.972;8.568;2023-04-29T13:17:12;13.25;;;12.45;;
40058;SDS011;25763;49.972;8.568;2023-04-29T13:19:38;12.05;;;11.35;;
40058;SDS011;25763;49.972;8.568;2023-04-29T13:22:03;12.02;;;11.32;;
40058;SDS011;25763;49.972;8.568;2023-04-29T13:24:29;12.50;;;11.65;;
40058;SDS011;25763;49.972;8.568;2023-04-29T13:26:54;11.88;;;11.18;;
40058;SDS011;25763;49.972;8.568;2023-04-29T13:29:20;12.55;;;11.85;;
40058;SDS011;25763;49.972;8.568;2023-04-29T13:31:45;11.25;;;10.55;;
40058;SDS011;25763;49.972;8.568;2023-04-29T13:34:10;11.57;;;10.88;;
40058;SDS011;25763;49.972;8.568;2023-04-29T13:36:36;11.30;;;10.60;;
40058;SDS011;25763;49.972;8.568;2023-04-29T13:39:01;11.23;;;10.52;;
40058;SDS011;25763;49.972;8.568;2023-04-29T13:41:26;10.93;;;10.23;;
40058;SDS011;25763;49.972;8.568;2023-04-29T13:43:51;11.90;;;11.20;;
40058;SDS011;25763;49.972;8.568;2023-04-29T13:46:17;12.25;;;11.45;;
40058;SDS011;25763;49.972;8.568;2023-04-29T13:48:42;11.98;;;11.18;;
40058;SDS011;25763;49.972;8.568;2023-04-29T13:51:07;11.50;;;10.80;;
40058;SDS011;25763;49.972;8.568;2023-04-29T13:53:33;10.98;;;10.27;;
40058;SDS011;25763;49.972;8.568;2023-04-29T13:55:58;11.43;;;10.73;;
40058;SDS011;25763;49.972;8.568;2023-04-29T13:58:24;11.05;;;10.35;;
40058;SDS011;25763;49.972;8.568;2023-04-29T14:00:49;11.30;;;10.60;;
40058;SDS011;25763;49.972;8.568;2023-04-29T14:03:14;11.93;;;11.18;;
40058;SDS011;25763;49.972;8.568;2023-04-29T14:05:42;11.25;;;10.55;;
40058;SDS011;25763;49.972;8.568;2023-04-29T14:08:08;11.73;;;11.02;;
40058;SDS011;25763;49.972;8.568;2023-04-29T14:10:33;11.57;;;10.88;;
40058;SDS011;25763;49.972;8.568;2023-04-29T14:12:59;12.35;;;11.65;;
40058;SDS011;25763;49.972;8.568;2023-04-29T14:15:24;11.77;;;11.07;;
40058;SDS011;25763;49.972;8.568;2023-04-29T14:17:50;11.10;;;10.40;;
40058;SDS011;25763;49.972;8.568;2023-04-29T14:20:15;11.32;;;10.63;;
40058;SDS011;25763;49.972;8.568;2023-04-29T14:22:41;11.70;;;10.90;;
40058;SDS011;25763;49.972;8.568;2023-04-29T14:25:06;10.80;;;10.15;;
40058;SDS011;25763;49.972;8.568;2023-04-29T14:27:32;12.38;;;11.68;;
40058;SDS011;25763;49.972;8.568;2023-04-29T14:29:59;11.73;;;11.02;;
40058;SDS011;25763;49.972;8.568;2023-04-29T14:32:25;11.32;;;10.63;;
40058;SDS011;25763;49.972;8.568;2023-04-29T14:34:50;10.88;;;10.18;;
40058;SDS011;25763;49.972;8.568;2023-04-29T14:37:15;12.23;;;11.52;;
40058;SDS011;25763;49.972;8.568;2023-04-29T14:39:41;11.00;;;10.20;;
40058;SDS011;25763;49.972;8.568;2023-04-29T14:42:06;10.90;;;10.20;;
40058;SDS011;25763;49.972;8.568;2023-04-29T14:44:31;11.20;;;10.50;;
40058;SDS011;25763;49.972;8.568;2023-04-29T14:46:57;11.25;;;10.55;;
40058;SDS011;25763;49.972;8.568;2023-04-29T14:49:22;12.27;;;10.45;;
40058;SDS011;25763;49.972;8.568;2023-04-29T14:51:48;11.75;;;11.05;;
40058;SDS011;25763;49.972;8.568;2023-04-29T14:54:13;14.10;;;13.30;;